createdAt,value
2022-11-15T00:00:57.600Z,9.70
2022-11-15T00:03:26.725Z,9.80
2022-11-15T00:05:53.694Z,9.70
2022-11-15T00:08:21.212Z,9.80
2022-11-15T00:11:01.922Z,9.80
2022-11-15T00:13:29.415Z,9.80
2022-11-15T00:16:00.480Z,9.90
2022-11-15T00:18:28.172Z,10.10
2022-11-15T00:20:54.923Z,10.00
2022-11-15T00:23:21.739Z,10.00
2022-11-15T00:25:48.522Z,10.00
2022-11-15T00:28:15.255Z,10.10
2022-11-15T00:30:41.992Z,10.00
2022-11-15T00:33:10.887Z,10.10
2022-11-15T00:35:37.666Z,10.20
2022-11-15T00:38:13.486Z,10.10
2022-11-15T00:40:40.239Z,10.10
2022-11-15T00:43:07.024Z,10.10
2022-11-15T00:45:33.808Z,10.10
2022-11-15T00:48:00.526Z,10.30
2022-11-15T00:50:27.263Z,10.20
2022-11-15T00:52:54.017Z,10.10
2022-11-15T00:55:21.000Z,10.10
2022-11-15T00:57:47.899Z,10.30
2022-11-15T01:00:15.118Z,10.40
2022-11-15T01:02:41.933Z,10.40
2022-11-15T01:05:09.555Z,10.40
2022-11-15T01:10:04.685Z,10.50
2022-11-15T01:12:31.785Z,10.60
2022-11-15T01:14:58.612Z,10.70
2022-11-15T01:17:25.470Z,10.70
2022-11-15T01:19:52.226Z,10.70
2022-11-15T01:24:46.209Z,10.90
2022-11-15T01:27:12.900Z,10.90
2022-11-15T01:29:39.647Z,10.90
2022-11-15T01:32:06.391Z,11.10
2022-11-15T01:34:33.208Z,11.00
2022-11-15T01:37:00.027Z,11.10
2022-11-15T01:39:27.614Z,11.20
2022-11-15T01:41:54.661Z,11.20
2022-11-15T01:44:48.627Z,11.20
2022-11-15T01:47:21.368Z,11.20
2022-11-15T01:50:01.939Z,11.10
2022-11-15T01:52:31.434Z,11.20
2022-11-15T01:55:15.936Z,11.30
2022-11-15T01:57:46.279Z,11.40
2022-11-15T02:00:13.879Z,11.40
2022-11-15T02:02:41.315Z,11.30
2022-11-15T02:05:08.522Z,11.50
2022-11-15T02:07:36.715Z,11.50
2022-11-15T02:10:12.193Z,11.60
2022-11-15T02:12:39.275Z,11.60
2022-11-15T02:15:07.910Z,11.50
2022-11-15T02:17:34.644Z,11.50
2022-11-15T02:20:20.244Z,11.50
2022-11-15T02:23:05.520Z,11.50
2022-11-15T02:26:02.581Z,11.50
2022-11-15T02:29:04.531Z,11.60
2022-11-15T02:31:49.312Z,11.70
2022-11-15T02:34:26.572Z,11.80
2022-11-15T02:37:02.155Z,11.70
2022-11-15T02:39:52.867Z,11.80
2022-11-15T02:42:43.771Z,11.70
2022-11-15T02:45:13.691Z,11.70
2022-11-15T02:47:46.674Z,11.70
2022-11-15T02:50:21.238Z,11.60
2022-11-15T02:52:50.287Z,11.70
2022-11-15T02:55:48.742Z,11.90
2022-11-15T02:58:24.250Z,11.70
2022-11-15T03:01:38.346Z,11.70
2022-11-15T03:04:34.256Z,11.80
2022-11-15T03:07:09.786Z,11.90
2022-11-15T03:10:05.863Z,11.80
2022-11-15T03:12:47.100Z,11.70
2022-11-15T03:15:36.741Z,11.70
2022-11-15T03:18:11.447Z,11.80
2022-11-15T03:20:38.377Z,11.70
2022-11-15T03:23:08.969Z,11.70
2022-11-15T03:25:41.397Z,11.80
2022-11-15T03:28:12.130Z,11.80
2022-11-15T03:30:40.876Z,11.80
2022-11-15T03:33:09.395Z,11.70
2022-11-15T03:35:41.636Z,11.70
2022-11-15T03:38:27.512Z,11.60
2022-11-15T03:41:02.160Z,11.50
2022-11-15T03:43:36.791Z,11.50
2022-11-15T03:46:20.304Z,11.50
2022-11-15T03:49:09.459Z,11.50
2022-11-15T03:51:36.634Z,11.50
2022-11-15T03:54:06.591Z,11.60
2022-11-15T03:56:34.464Z,11.50
2022-11-15T03:59:01.385Z,11.50
2022-11-15T04:01:28.162Z,11.50
2022-11-15T04:03:55.035Z,11.60
2022-11-15T04:06:21.905Z,11.60
2022-11-15T04:08:48.585Z,11.50
2022-11-15T04:11:15.350Z,11.40
2022-11-15T04:13:42.017Z,11.40
2022-11-15T04:16:08.751Z,11.50
2022-11-15T04:18:35.408Z,11.60
2022-11-15T04:21:20.782Z,11.70
2022-11-15T04:24:06.114Z,11.60
2022-11-15T04:26:33.433Z,11.70
2022-11-15T04:29:18.683Z,11.90
2022-11-15T04:31:45.381Z,11.80
2022-11-15T04:34:12.051Z,11.80
2022-11-15T04:36:57.595Z,11.70
2022-11-15T04:39:24.279Z,11.50
2022-11-15T04:41:51.015Z,11.60
2022-11-15T04:44:17.869Z,11.70
2022-11-15T04:46:44.627Z,11.50
2022-11-15T04:49:11.424Z,11.50
2022-11-15T04:51:38.369Z,11.50
2022-11-15T04:54:05.231Z,11.50
2022-11-15T04:56:31.966Z,11.40
2022-11-15T04:58:58.735Z,11.40
2022-11-15T05:01:25.503Z,11.30
2022-11-15T05:04:10.923Z,11.40
2022-11-15T05:06:37.673Z,11.40
2022-11-15T05:09:04.744Z,11.50
2022-11-15T05:11:31.878Z,11.50
2022-11-15T05:13:58.537Z,11.50
2022-11-15T05:16:25.275Z,11.50
2022-11-15T05:18:55.952Z,11.50
2022-11-15T05:21:22.695Z,11.60
2022-11-15T05:23:49.451Z,11.50
2022-11-15T05:26:18.445Z,11.50
2022-11-15T05:28:45.309Z,11.50
2022-11-15T05:31:15.011Z,11.50
2022-11-15T05:33:43.178Z,11.50
2022-11-15T05:36:28.439Z,11.60
2022-11-15T05:38:55.544Z,11.60
2022-11-15T05:41:46.702Z,11.60
2022-11-15T05:44:16.484Z,11.50
2022-11-15T05:46:43.843Z,11.60
2022-11-15T05:49:15.073Z,11.70
2022-11-15T05:51:45.608Z,11.50
2022-11-15T05:54:12.748Z,11.50
2022-11-15T05:56:39.990Z,11.50
2022-11-15T05:59:08.326Z,11.40
2022-11-15T06:01:35.149Z,11.40
2022-11-15T06:04:01.932Z,11.40
2022-11-15T06:06:29.837Z,11.30
2022-11-15T06:08:56.663Z,11.30
2022-11-15T06:11:23.469Z,11.30
2022-11-15T06:13:50.171Z,11.30
2022-11-15T06:16:16.898Z,11.30
2022-11-15T06:18:43.994Z,11.30
2022-11-15T06:21:10.648Z,11.30
2022-11-15T06:23:37.371Z,11.30
2022-11-15T06:26:04.516Z,11.20
2022-11-15T06:28:32.787Z,11.30
2022-11-15T06:31:07.408Z,11.30
2022-11-15T06:33:34.544Z,11.50
2022-11-15T06:36:06.729Z,11.50
2022-11-15T06:38:33.454Z,11.50
2022-11-15T06:41:09.653Z,11.60
2022-11-15T06:43:36.736Z,11.60
2022-11-15T06:46:05.658Z,11.60
2022-11-15T06:48:33.784Z,11.70
2022-11-15T06:51:02.382Z,11.70
2022-11-15T06:53:30.666Z,11.90
2022-11-15T06:56:05.586Z,11.80
2022-11-15T06:58:32.456Z,11.90
2022-11-15T07:01:04.635Z,12.00
2022-11-15T07:03:32.286Z,11.90
2022-11-15T07:06:04.235Z,11.80
2022-11-15T07:08:34.297Z,11.80
2022-11-15T07:11:06.723Z,11.90
2022-11-15T07:13:35.023Z,12.00
2022-11-15T07:16:06.349Z,12.00
2022-11-15T07:18:35.917Z,12.00
2022-11-15T07:21:07.650Z,12.00
2022-11-15T07:23:36.588Z,11.90
2022-11-15T07:26:03.541Z,11.90
2022-11-15T07:28:30.308Z,12.00
2022-11-15T07:30:57.308Z,12.00
2022-11-15T07:33:24.048Z,12.10
2022-11-15T07:35:50.806Z,12.20
2022-11-15T07:38:21.079Z,12.40
2022-11-15T07:40:48.490Z,12.40
2022-11-15T07:43:15.194Z,12.50
2022-11-15T07:45:46.310Z,12.50
2022-11-15T07:48:13.106Z,12.50
2022-11-15T07:50:43.635Z,12.60
2022-11-15T07:53:11.483Z,12.60
2022-11-15T07:55:40.970Z,12.70
2022-11-15T07:58:13.048Z,12.70
2022-11-15T08:00:39.833Z,12.70
2022-11-15T08:03:09.493Z,12.70
2022-11-15T08:05:37.069Z,12.70
2022-11-15T08:08:04.697Z,12.70
2022-11-15T08:10:34.239Z,12.60
2022-11-15T08:13:07.694Z,12.70
2022-11-15T08:15:35.546Z,12.70
2022-11-15T08:18:05.384Z,12.90
2022-11-15T08:20:33.170Z,13.00
2022-11-15T08:23:01.314Z,13.00
2022-11-15T08:25:29.763Z,13.30
2022-11-15T08:28:01.650Z,13.50
2022-11-15T08:30:29.179Z,13.30
2022-11-15T08:32:58.479Z,13.50
2022-11-15T08:35:29.018Z,13.70
2022-11-15T08:37:56.410Z,14.40
2022-11-15T08:40:23.809Z,14.40
2022-11-15T08:42:50.516Z,14.00
2022-11-15T08:45:17.382Z,14.00
2022-11-15T08:47:44.123Z,14.00
2022-11-15T08:50:11.098Z,14.10
2022-11-15T08:52:37.775Z,14.10
2022-11-15T08:55:04.849Z,14.30
2022-11-15T08:57:31.731Z,14.00
2022-11-15T08:59:58.778Z,14.50
2022-11-15T09:02:25.634Z,14.50
2022-11-15T09:04:52.343Z,14.60
2022-11-15T09:07:19.336Z,14.60
2022-11-15T09:09:46.105Z,15.10
2022-11-15T09:12:12.784Z,14.50
2022-11-15T09:17:09.782Z,14.30
2022-11-15T09:19:37.800Z,14.30
2022-11-15T09:22:07.893Z,15.00
2022-11-15T09:24:35.243Z,16.20
2022-11-15T09:27:02.012Z,16.20
2022-11-15T09:29:28.789Z,17.30
2022-11-15T09:31:55.721Z,17.40
2022-11-15T09:34:22.427Z,18.00
2022-11-15T09:36:49.102Z,18.00
2022-11-15T09:39:15.952Z,17.60
2022-11-15T09:42:13.206Z,18.20
2022-11-15T09:45:29.815Z,18.00
2022-11-15T09:48:11.255Z,18.10
2022-11-15T09:50:51.194Z,19.00
2022-11-15T09:56:28.588Z,19.50
2022-11-15T09:59:16.511Z,18.70
2022-11-15T10:02:08.908Z,17.80
2022-11-15T10:04:38.016Z,17.80
2022-11-15T10:07:17.201Z,17.80
2022-11-15T10:09:58.107Z,17.50
2022-11-15T10:12:26.630Z,17.80
2022-11-15T10:15:02.170Z,18.00
2022-11-15T10:17:41.857Z,18.10
2022-11-15T10:20:08.632Z,18.50
2022-11-15T10:22:45.295Z,18.50
2022-11-15T10:25:26.763Z,19.10
2022-11-15T10:28:18.920Z,18.90
2022-11-15T10:30:48.809Z,19.00
2022-11-15T10:33:27.130Z,19.20
2022-11-15T10:36:12.593Z,20.20
2022-11-15T10:38:51.528Z,19.50
2022-11-15T10:41:20.975Z,19.60
2022-11-15T10:44:09.593Z,19.50
2022-11-15T10:46:47.528Z,19.00
2022-11-15T10:49:17.904Z,19.10
2022-11-15T10:52:20.244Z,19.80
2022-11-15T10:54:54.925Z,19.10
2022-11-15T10:57:26.739Z,18.40
2022-11-15T10:59:57.486Z,18.60
2022-11-15T11:02:31.942Z,19.30
2022-11-15T11:04:59.464Z,20.10
2022-11-15T11:07:34.733Z,20.40
2022-11-15T11:10:49.245Z,20.40
2022-11-15T11:13:24.002Z,20.50
2022-11-15T11:16:15.867Z,21.20
2022-11-15T11:18:57.543Z,20.70
2022-11-15T11:21:54.957Z,21.50
2022-11-15T11:24:57.022Z,21.40
2022-11-15T11:27:48.599Z,20.30
2022-11-15T11:30:18.465Z,20.80
2022-11-15T11:32:45.155Z,20.10
2022-11-15T11:35:30.092Z,20.10
2022-11-15T11:38:16.484Z,20.40
2022-11-15T11:41:08.068Z,20.70
2022-11-15T11:43:46.937Z,20.90
2022-11-15T11:46:28.801Z,20.60
2022-11-15T11:49:05.417Z,19.30
2022-11-15T11:51:43.129Z,19.10
2022-11-15T11:54:41.040Z,20.30
2022-11-15T11:57:26.748Z,20.10
2022-11-15T12:00:03.682Z,19.80
2022-11-15T12:02:32.863Z,20.90
2022-11-15T12:05:33.463Z,20.40
2022-11-15T12:08:12.180Z,19.00
2022-11-15T12:10:40.208Z,19.90
2022-11-15T12:13:22.173Z,20.20
2022-11-15T12:16:10.484Z,18.40
2022-11-15T12:18:38.548Z,18.60
2022-11-15T12:21:17.666Z,18.50
2022-11-15T12:23:51.666Z,18.20
2022-11-15T12:26:22.698Z,18.10
2022-11-15T12:29:07.589Z,18.00
2022-11-15T12:31:44.737Z,18.10
2022-11-15T12:34:37.379Z,18.10
2022-11-15T12:37:35.937Z,18.30
2022-11-15T12:40:24.131Z,18.60
2022-11-15T12:43:04.820Z,19.20
2022-11-15T12:45:39.710Z,19.20
2022-11-15T12:48:18.603Z,17.60
2022-11-15T12:50:56.059Z,17.30
2022-11-15T12:53:25.759Z,16.80
2022-11-15T12:56:04.280Z,16.90
2022-11-15T12:58:49.483Z,16.90
2022-11-15T13:01:31.684Z,17.10
2022-11-15T13:04:19.436Z,17.10
2022-11-15T13:06:56.920Z,16.80
2022-11-15T13:09:53.412Z,16.90
2022-11-15T13:12:23.076Z,16.40
2022-11-15T13:15:02.505Z,16.30
2022-11-15T13:17:29.236Z,16.10
2022-11-15T13:20:07.879Z,16.20
2022-11-15T13:23:03.071Z,16.10
2022-11-15T13:25:32.689Z,16.00
2022-11-15T13:28:03.599Z,15.90
2022-11-15T13:30:33.539Z,16.30
2022-11-15T13:33:09.540Z,16.50
2022-11-15T13:35:41.027Z,16.50
2022-11-15T13:38:18.142Z,16.40
2022-11-15T13:40:44.917Z,16.20
2022-11-15T13:43:28.562Z,16.50
2022-11-15T13:46:13.769Z,16.50
2022-11-15T13:48:42.009Z,16.30
2022-11-15T13:51:45.215Z,16.10
2022-11-15T13:54:45.123Z,16.00
2022-11-15T13:57:20.064Z,16.00
2022-11-15T13:59:55.132Z,16.20
2022-11-15T14:02:34.377Z,16.10
2022-11-15T14:05:13.853Z,15.90
2022-11-15T14:07:44.427Z,16.10
2022-11-15T14:10:30.982Z,16.00
2022-11-15T14:12:58.714Z,16.00
2022-11-15T14:15:35.017Z,15.80
2022-11-15T14:18:02.733Z,15.90
2022-11-15T14:20:35.434Z,15.80
2022-11-15T14:23:05.323Z,15.90
2022-11-15T14:25:36.431Z,16.00
2022-11-15T14:28:23.139Z,15.90
2022-11-15T14:30:52.617Z,15.80
2022-11-15T14:33:29.475Z,15.40
2022-11-15T14:35:58.294Z,15.40
2022-11-15T14:38:28.123Z,15.30
2022-11-15T14:40:56.716Z,15.00
2022-11-15T14:43:23.842Z,15.00
2022-11-15T14:45:50.579Z,15.10
2022-11-15T14:48:17.258Z,15.10
2022-11-15T14:50:44.950Z,14.90
2022-11-15T14:53:14.492Z,14.90
2022-11-15T14:55:41.178Z,14.80
2022-11-15T14:58:11.368Z,14.80
2022-11-15T15:00:40.491Z,14.90
2022-11-15T15:03:07.952Z,14.90
2022-11-15T15:05:35.771Z,14.70
2022-11-15T15:08:03.072Z,14.50
2022-11-15T15:10:42.003Z,14.40
2022-11-15T15:13:23.605Z,14.50
2022-11-15T15:15:51.895Z,14.30
2022-11-15T15:18:18.957Z,14.20
2022-11-15T15:20:55.286Z,14.10
2022-11-15T15:23:22.160Z,14.10
2022-11-15T15:25:50.146Z,14.10
2022-11-15T15:28:17.393Z,14.20
2022-11-15T15:30:44.598Z,14.20
2022-11-15T15:33:11.406Z,14.20
2022-11-15T15:35:38.139Z,14.30
2022-11-15T15:38:05.403Z,14.10
2022-11-15T15:40:33.675Z,14.10
2022-11-15T15:43:00.844Z,14.10
2022-11-15T15:45:28.617Z,14.20
2022-11-15T15:47:56.008Z,14.10
2022-11-15T15:50:23.096Z,14.20
2022-11-15T15:52:51.133Z,14.20
2022-11-15T15:55:17.979Z,14.20
2022-11-15T15:57:44.796Z,14.30
2022-11-15T16:00:12.218Z,14.20
2022-11-15T16:02:40.791Z,14.10
2022-11-15T16:05:09.077Z,14.10
2022-11-15T16:07:36.257Z,14.10
2022-11-15T16:10:25.837Z,14.00
2022-11-15T16:12:53.885Z,14.00
2022-11-15T16:15:22.027Z,13.80
2022-11-15T16:17:52.468Z,13.90
2022-11-15T16:20:30.319Z,13.90
2022-11-15T16:22:57.601Z,14.20
2022-11-15T16:25:24.567Z,14.20
2022-11-15T16:27:51.312Z,14.20
2022-11-15T16:30:22.295Z,14.00
2022-11-15T16:32:49.146Z,14.10
2022-11-15T16:35:17.345Z,14.00
2022-11-15T16:37:46.561Z,14.00
2022-11-15T16:40:42.505Z,14.00
2022-11-15T16:43:09.265Z,13.90
2022-11-15T16:45:36.078Z,13.90
2022-11-15T16:48:03.190Z,13.90
2022-11-15T16:50:35.075Z,14.00
2022-11-15T16:53:02.089Z,13.90
2022-11-15T16:55:30.407Z,13.70
2022-11-15T16:58:01.884Z,13.70
2022-11-15T17:00:29.041Z,13.70
2022-11-15T17:02:56.237Z,13.80
2022-11-15T17:05:24.285Z,13.80
2022-11-15T17:07:54.755Z,13.90
2022-11-15T17:10:23.161Z,13.80
2022-11-15T17:12:51.023Z,13.80
2022-11-15T17:15:18.690Z,13.80
2022-11-15T17:17:50.783Z,13.60
2022-11-15T17:20:18.918Z,13.70
2022-11-15T17:22:47.270Z,13.70
2022-11-15T17:25:14.591Z,13.70
2022-11-15T17:27:41.748Z,13.60
2022-11-15T17:30:10.438Z,13.60
2022-11-15T17:32:37.570Z,13.70
2022-11-15T17:35:11.955Z,13.70
2022-11-15T17:37:40.526Z,13.70
2022-11-15T17:40:07.932Z,13.60
2022-11-15T17:42:34.660Z,13.60
2022-11-15T17:45:06.547Z,13.70
2022-11-15T17:47:36.572Z,13.60
2022-11-15T17:50:03.560Z,13.50
2022-11-15T17:52:30.309Z,13.70
2022-11-15T17:54:57.086Z,13.50
2022-11-15T17:57:24.170Z,13.50
2022-11-15T17:59:50.941Z,13.70
2022-11-15T18:02:17.720Z,13.60
2022-11-15T18:04:44.434Z,13.60
2022-11-15T18:12:10.493Z,13.40
2022-11-15T18:14:37.390Z,13.40
2022-11-15T18:19:31.311Z,13.60
2022-11-15T18:21:58.934Z,13.50
2022-11-15T18:24:34.684Z,13.50
2022-11-15T18:27:03.722Z,13.50
2022-11-15T18:29:30.789Z,13.50
2022-11-15T18:31:58.752Z,13.40
2022-11-15T18:34:31.802Z,13.40
2022-11-15T18:36:59.167Z,13.40
2022-11-15T18:39:25.881Z,13.50
2022-11-15T18:41:52.747Z,13.30
2022-11-15T18:44:19.754Z,13.30
2022-11-15T18:46:46.662Z,13.30
2022-11-15T18:49:16.445Z,13.30
2022-11-15T18:51:44.023Z,13.30
2022-11-15T18:54:12.866Z,13.30
2022-11-15T18:56:40.227Z,13.40
2022-11-15T18:59:08.366Z,13.30
2022-11-15T19:01:40.888Z,13.20
2022-11-15T19:04:17.594Z,13.30
2022-11-15T19:06:48.787Z,13.20
2022-11-15T19:09:17.531Z,13.10
2022-11-15T19:11:45.880Z,13.10
2022-11-15T19:14:15.211Z,13.20
2022-11-15T19:16:52.126Z,13.30
2022-11-15T19:19:21.514Z,13.20
2022-11-15T19:21:48.532Z,13.20
2022-11-15T19:24:15.535Z,13.20
2022-11-15T19:26:42.947Z,13.10
2022-11-15T19:29:10.429Z,13.10
2022-11-15T19:31:37.750Z,13.10
2022-11-15T19:34:05.934Z,13.10
2022-11-15T19:36:38.081Z,13.10
2022-11-15T19:39:09.638Z,13.10
2022-11-15T19:41:38.689Z,12.90
2022-11-15T19:44:06.931Z,12.90
2022-11-15T19:46:34.233Z,13.00
2022-11-15T19:49:01.449Z,13.00
2022-11-15T19:51:30.825Z,13.00
2022-11-15T19:54:01.434Z,13.00
2022-11-15T19:58:56.351Z,13.00
2022-11-15T20:01:29.207Z,13.00
2022-11-15T20:03:58.798Z,13.00
2022-11-15T20:06:33.993Z,13.00
2022-11-15T20:09:01.007Z,13.00
2022-11-15T20:11:27.892Z,12.90
2022-11-15T20:13:59.363Z,12.90
2022-11-15T20:16:26.543Z,12.80
2022-11-15T20:18:53.406Z,12.80
2022-11-15T20:21:20.706Z,12.90
2022-11-15T20:23:47.958Z,12.90
2022-11-15T20:26:15.879Z,12.90
2022-11-15T20:28:44.688Z,12.80
2022-11-15T20:31:12.926Z,13.00
2022-11-15T20:33:39.923Z,12.90
2022-11-15T20:36:15.427Z,12.80
2022-11-15T20:38:42.548Z,12.80
2022-11-15T20:41:11.019Z,12.80
2022-11-15T20:43:37.915Z,12.90
2022-11-15T20:46:04.774Z,12.90
2022-11-15T20:48:32.017Z,13.00
2022-11-15T20:51:10.999Z,13.00
2022-11-15T20:53:37.734Z,13.00
2022-11-15T20:56:07.855Z,13.10
2022-11-15T20:58:36.596Z,13.10
2022-11-15T21:01:05.122Z,13.10
2022-11-15T21:03:32.560Z,13.10
2022-11-15T21:05:59.411Z,13.10
2022-11-15T21:11:12.764Z,13.00
2022-11-15T21:13:40.018Z,13.10
2022-11-15T21:16:07.324Z,13.10
2022-11-15T21:18:34.373Z,13.20
2022-11-15T21:21:05.489Z,13.10
2022-11-15T21:23:32.258Z,13.20
2022-11-15T21:25:59.180Z,13.20
2022-11-15T21:28:25.967Z,13.20
2022-11-15T21:30:57.484Z,13.20
2022-11-15T21:33:27.351Z,13.20
2022-11-15T21:35:55.702Z,13.10
2022-11-15T21:38:24.000Z,13.20
2022-11-15T21:40:52.051Z,13.20
2022-11-15T21:43:19.358Z,13.10
2022-11-15T21:45:57.161Z,13.10
2022-11-15T21:48:23.884Z,13.10
2022-11-15T21:50:58.154Z,12.90
2022-11-15T21:53:25.576Z,12.90
2022-11-15T21:55:52.773Z,13.00
2022-11-15T21:58:21.105Z,13.10
2022-11-15T22:01:07.032Z,12.90
2022-11-15T22:03:34.014Z,12.90
2022-11-15T22:06:00.948Z,12.90
2022-11-15T22:08:28.037Z,12.90
2022-11-15T22:10:56.748Z,12.80
2022-11-15T22:13:25.003Z,12.90
2022-11-15T22:15:53.943Z,12.90
2022-11-15T22:18:26.258Z,12.90
2022-11-15T22:21:09.104Z,12.90
2022-11-15T22:23:36.306Z,12.90
2022-11-15T22:26:03.937Z,12.80
2022-11-15T22:28:31.315Z,12.80
2022-11-15T22:30:58.469Z,12.90
2022-11-15T22:33:27.725Z,13.00
2022-11-15T22:35:55.174Z,13.00
2022-11-15T22:38:22.518Z,12.90
2022-11-15T22:40:49.481Z,12.90
2022-11-15T22:43:18.407Z,12.90
2022-11-15T22:46:04.495Z,12.90
2022-11-15T22:48:36.866Z,12.90
2022-11-15T22:51:04.899Z,12.80
2022-11-15T22:53:31.868Z,12.90
2022-11-15T22:56:00.682Z,12.80
2022-11-15T22:58:29.458Z,12.80
2022-11-15T23:00:58.189Z,12.90
2022-11-15T23:03:26.579Z,12.90
2022-11-15T23:05:53.673Z,12.80
2022-11-15T23:08:23.229Z,12.90
2022-11-15T23:11:08.987Z,13.00
2022-11-15T23:13:35.985Z,13.00
2022-11-15T23:16:34.533Z,12.80
2022-11-15T23:19:07.405Z,12.90
2022-11-15T23:21:58.158Z,12.80
2022-11-15T23:24:25.578Z,12.80
2022-11-15T23:26:55.846Z,12.80
2022-11-15T23:29:25.040Z,12.80
2022-11-15T23:32:11.707Z,12.70
2022-11-15T23:34:43.910Z,12.80
2022-11-15T23:37:14.135Z,12.80
2022-11-15T23:39:40.929Z,12.70
2022-11-15T23:42:09.392Z,12.70
2022-11-15T23:44:36.827Z,12.80
2022-11-15T23:47:03.859Z,12.70
2022-11-15T23:49:30.607Z,12.70
2022-11-15T23:51:57.378Z,12.70
2022-11-15T23:54:24.118Z,12.70
2022-11-15T23:56:50.827Z,12.70
2022-11-15T23:59:17.682Z,12.70
